Startpagina
METAR-TAF:

METAR-TAF

Vliegvelden :

Christchurch, Nieuw-Zeeland

Luchthaven van Christchurch

breedte: 43-29S, lengte: 172-33E, hoogte: 38 m

Actueel weer

Dit bericht is 17 minuten geleden gemaakt, om 02:30 UTC
Wind 4 kt uit het noorden, variërend tussen het noordnoordwesten en het noordoosten
Temperatuur 13°C
Vochtigheid 58%
Druk 1002 hPa
Zicht 10 km of meer

METAR: NZCH 250230Z AUTO 01004KT 340V050 9999 NCD 13/05 Q1002 NOSIG

Tijdstip: 14:47 (02:47 UTC)

Verwachting

Dit bericht is 3 uur en het 46 minuten geleden gemaakt, om 23:01 UTC
Verwachting geldig van 25 om 00 UTC tot 26 om 00 UTC
Wind 5 kt uit het westen
Zicht 10 km of meer
geen wolken onder 1500 m en geen cumulonimbus
Kans 30%
van 25 om 10 UTC tot 25 om 20 UTC
Zicht: 0500 m
mist
Wijzigt naar
van 25 om 21 UTC tot 25 om 23 UTC
Wind 10 kt uit het noordnoordoosten

TAF: NZCH 242301Z 2500/2600 28005KT CAVOK PROB30 2510/2520 0500 FG BECMG 2521/2523 02010KT

Waarnemingen en weersverwachtingen van meer dan 4000 vliegvelden (METAR en TAF).

De beschikbare stations zijn de gele en rode punten op de kaart.

Ga met uw muis naar het station om de naam te zien.

Klik dan om waarnemingen en weersverwachtingen te zien.

kaart wijzigen: klik op de groene knoppen met een zwart kruis om in te zoomen, op de groene knop met een streepje om uit te zoomen of op de groene pijlen voor aangrenzende kaarten.


METAR-TAF: